Time;durP1;ratioP1;P1;durP2;ratioP2;P2;SDS_P1;SDS_P2;PMS_P1;PMS_P2;Temp;Humidity;BMP_temperature;BMP_pressure;BME280_temperature;BME280_humidity;BME280_pressure;Samples;Min_cycle;Max_cycle;Signal;HPM_P1;HPM_P2
2022/04/19 00:01:10;;;;;;;;;;;8.20;79.00;;;;;;5121792;28;19907;-66
2022/04/19 00:03:36;;;;;;;;;;;8.20;79.60;;;;;;5122157;28;19908;-66
2022/04/19 00:06:02;;;;;;;;;;;8.20;79.70;;;;;;5122015;28;19931;-66
2022/04/19 00:08:27;;;;;;;;;;;8.20;79.50;;;;;;5121992;28;19915;-66
2022/04/19 00:10:53;;;;;;;;;;;8.20;79.70;;;;;;5121407;28;19907;-66
2022/04/19 00:13:18;;;;;;;;;;;8.10;79.90;;;;;;5121878;28;20203;-66
2022/04/19 00:15:45;;;;;;;;;;;8.10;79.90;;;;;;5121752;28;19942;-66
2022/04/19 00:18:11;;;;;;;;;;;8.10;79.60;;;;;;5121852;28;19907;-66
2022/04/19 00:20:42;;;;;;;;;;;8.10;79.70;;;;;;5122734;28;20106;-66
2022/04/19 00:23:15;;;;;;;;;;;8.00;79.70;;;;;;5125816;28;19976;-66
2022/04/19 00:25:45;;;;;;;;;;;7.90;80.40;;;;;;5125368;28;20009;-66
2022/04/19 00:28:11;;;;;;;;;;;7.80;80.70;;;;;;5125502;28;19952;-65
2022/04/19 00:30:37;;;;;;;;;;;7.80;80.90;;;;;;5125358;28;20270;-66
2022/04/19 00:33:03;;;;;;;;;;;7.80;81.40;;;;;;5125401;28;19908;-65
2022/04/19 00:35:29;;;;;;;;;;;7.80;81.40;;;;;;5125455;28;19934;-65
2022/04/19 00:37:54;;;;;;;;;;;7.70;81.10;;;;;;5125255;28;19907;-66
2022/04/19 00:40:20;;;;;;;;;;;7.70;81.10;;;;;;5124984;28;19908;-66
2022/04/19 00:42:47;;;;;;;;;;;7.70;80.90;;;;;;5124934;28;19917;-66
2022/04/19 00:45:13;;;;;;;;;;;7.60;81.10;;;;;;5106822;28;19986;-66
2022/04/19 00:47:39;;;;;;;;;;;7.60;80.80;;;;;;5125131;28;19952;-66
2022/04/19 00:50:05;;;;;;;;;;;7.60;80.40;;;;;;5106732;28;19907;-66
2022/04/19 00:52:34;;;;;;;;;;;7.60;81.20;;;;;;5124807;28;20144;-65
2022/04/19 00:55:01;;;;;;;;;;;7.40;81.80;;;;;;5106543;28;19918;-66
2022/04/19 00:57:27;;;;;;;;;;;7.40;82.20;;;;;;5124798;28;19953;-65
2022/04/19 00:59:54;;;;;;;;;;;7.40;82.10;;;;;;5124784;28;19914;-66
2022/04/19 01:02:20;;;;;;;;;;;7.30;82.40;;;;;;5124539;28;19969;-66
2022/04/19 01:04:45;;;;;;;;;;;7.20;82.50;;;;;;5124559;28;19982;-66
2022/04/19 01:07:11;;;;;;;;;;;7.10;82.20;;;;;;5124678;28;20125;-66
2022/04/19 01:09:37;;;;;;;;;;;7.20;81.70;;;;;;5106115;28;19907;-66
2022/04/19 01:14:49;;;;;;;;;;;7.10;82.00;;;;;;5108911;28;19919;-65
2022/04/19 01:17:15;;;;;;;;;;;7.00;82.50;;;;;;5124407;28;20215;-65
2022/04/19 01:19:40;;;;;;;;;;;6.90;82.70;;;;;;5124349;28;19908;-66
2022/04/19 01:22:06;;;;;;;;;;;6.90;83.40;;;;;;5088952;28;19931;-66
2022/04/19 01:24:36;;;;;;;;;;;6.70;84.30;;;;;;5123976;28;20006;-66
2022/04/19 01:27:03;;;;;;;;;;;6.80;84.60;;;;;;5124405;28;19914;-66
2022/04/19 01:29:28;;;;;;;;;;;6.80;85.00;;;;;;5124217;28;19946;-66
2022/04/19 01:31:54;;;;;;;;;;;6.70;85.00;;;;;;5124010;28;19908;-65
2022/04/19 01:34:20;;;;;;;;;;;6.70;85.00;;;;;;5124142;28;19926;-65
2022/04/19 01:36:46;;;;;;;;;;;6.70;85.50;;;;;;5124263;28;19908;-65
2022/04/19 01:39:12;;;;;;;;;;;6.50;85.90;;;;;;5124172;28;19939;-66
2022/04/19 01:41:38;;;;;;;;;;;6.50;86.30;;;;;;5123936;28;20160;-66
2022/04/19 01:44:07;;;;;;;;;;;6.40;86.50;;;;;;5124060;28;19970;-66
2022/04/19 01:46:33;;;;;;;;;;;6.40;87.30;;;;;;5124050;28;19957;-66
2022/04/19 01:49:02;;;;;;;;;;;6.40;87.40;;;;;;5123981;28;19914;-66
2022/04/19 01:51:28;;;;;;;;;;;6.30;88.30;;;;;;5105442;28;20175;-66
2022/04/19 01:53:55;;;;;;;;;;;6.20;88.50;;;;;;5123811;28;19965;-66
2022/04/19 01:56:21;;;;;;;;;;;6.10;88.90;;;;;;5123591;28;20203;-66
2022/04/19 01:58:48;;;;;;;;;;;6.10;89.20;;;;;;5123654;28;19961;-66
2022/04/19 02:01:14;;;;;;;;;;;6.10;89.30;;;;;;5123455;28;19907;-65
2022/04/19 02:03:40;;;;;;;;;;;6.00;89.50;;;;;;5123648;28;19908;-66
2022/04/19 02:06:08;;;;;;;;;;;6.00;90.00;;;;;;5123882;28;19915;-65
2022/04/19 02:08:34;;;;;;;;;;;6.00;90.00;;;;;;5123779;28;19908;-65
2022/04/19 02:11:00;;;;;;;;;;;6.00;90.10;;;;;;5123574;28;20221;-66
2022/04/19 02:13:27;;;;;;;;;;;6.00;90.00;;;;;;5124089;28;19990;-65
2022/04/19 02:15:52;;;;;;;;;;;6.00;89.70;;;;;;5123512;28;19907;-65
2022/04/19 02:18:19;;;;;;;;;;;6.00;90.00;;;;;;5123378;28;19942;-66
2022/04/19 02:20:45;;;;;;;;;;;6.10;89.80;;;;;;5123156;28;20349;-67
2022/04/19 02:23:14;;;;;;;;;;;6.00;90.00;;;;;;5123285;28;19907;-66
2022/04/19 02:25:39;;;;;;;;;;;5.90;90.00;;;;;;5122991;28;19908;-66
2022/04/19 02:28:07;;;;;;;;;;;5.90;90.10;;;;;;5123231;28;19945;-65
2022/04/19 02:30:33;;;;;;;;;;;5.90;90.00;;;;;;5123223;28;19990;-66
2022/04/19 02:32:59;;;;;;;;;;;5.90;90.00;;;;;;5123163;28;20093;-65
2022/04/19 02:35:27;;;;;;;;;;;5.90;89.90;;;;;;5123079;28;19912;-65
2022/04/19 02:37:56;;;;;;;;;;;5.90;90.00;;;;;;5123257;28;19971;-66
2022/04/19 02:40:22;;;;;;;;;;;6.00;90.00;;;;;;5122945;28;20240;-65
2022/04/19 02:42:49;;;;;;;;;;;6.10;89.80;;;;;;5122428;28;19915;-66
2022/04/19 02:45:15;;;;;;;;;;;6.00;89.40;;;;;;5122881;28;19923;-66
2022/04/19 02:47:41;;;;;;;;;;;6.00;89.20;;;;;;5123002;28;19919;-66
2022/04/19 02:50:07;;;;;;;;;;;5.90;89.30;;;;;;5122985;28;19908;-66
2022/04/19 02:52:33;;;;;;;;;;;6.00;89.30;;;;;;5122165;28;19952;-66
2022/04/19 02:54:59;;;;;;;;;;;5.90;89.40;;;;;;5104355;28;19916;-66
2022/04/19 02:57:25;;;;;;;;;;;5.90;89.50;;;;;;5122707;28;19907;-66
2022/04/19 02:59:51;;;;;;;;;;;5.70;89.60;;;;;;5122997;28;19908;-67
2022/04/19 03:02:18;;;;;;;;;;;5.70;89.70;;;;;;5122526;28;19911;-66
2022/04/19 03:04:43;;;;;;;;;;;5.70;89.50;;;;;;5131507;22;20120;-65
2022/04/19 03:07:09;;;;;;;;;;;5.60;89.40;;;;;;5083087;28;19908;-66
2022/04/19 03:09:35;;;;;;;;;;;5.50;89.60;;;;;;5082979;28;20203;-66
2022/04/19 03:12:01;;;;;;;;;;;5.50;89.70;;;;;;5082768;28;19932;-66
2022/04/19 03:14:27;;;;;;;;;;;5.40;90.00;;;;;;5082829;28;20234;-66
2022/04/19 03:16:53;;;;;;;;;;;5.30;90.00;;;;;;5083213;28;19909;-66
2022/04/19 03:19:19;;;;;;;;;;;5.30;90.10;;;;;;5082929;28;20145;-66
2022/04/19 03:21:45;;;;;;;;;;;5.40;90.00;;;;;;5082749;28;19915;-66
2022/04/19 03:29:39;;;;;;;;;;;5.30;89.70;;;;;;5082997;28;19915;-66
2022/04/19 03:32:05;;;;;;;;;;;5.30;89.60;;;;;;5082710;28;19975;-66
2022/04/19 03:34:30;;;;;;;;;;;5.30;89.50;;;;;;5082362;28;19917;-66
2022/04/19 03:36:56;;;;;;;;;;;5.30;89.30;;;;;;5082852;28;20014;-66
2022/04/19 03:39:22;;;;;;;;;;;5.30;89.30;;;;;;5082762;28;19953;-66
2022/04/19 03:41:47;;;;;;;;;;;5.30;89.30;;;;;;5082514;28;19917;-66
2022/04/19 03:44:13;;;;;;;;;;;5.30;89.30;;;;;;5082875;28;19994;-66
2022/04/19 03:49:26;;;;;;;;;;;5.30;89.70;;;;;;5082526;28;19946;-66
2022/04/19 03:51:52;;;;;;;;;;;5.30;89.70;;;;;;5081862;28;20223;-66
2022/04/19 03:54:17;;;;;;;;;;;5.30;89.70;;;;;;5082509;28;19920;-66
2022/04/19 03:56:43;;;;;;;;;;;5.30;89.80;;;;;;5085491;28;19912;-66
2022/04/19 03:59:10;;;;;;;;;;;5.40;89.90;;;;;;5086659;28;20215;-66
2022/04/19 04:01:38;;;;;;;;;;;5.40;89.60;;;;;;5086247;28;20104;-66
2022/04/19 04:04:06;;;;;;;;;;;5.30;89.50;;;;;;5086329;28;19940;-66
2022/04/19 04:06:38;;;;;;;;;;;5.40;89.40;;;;;;5086237;28;19912;-66
2022/04/19 04:09:04;;;;;;;;;;;5.20;89.90;;;;;;5086477;28;19943;-66
2022/04/19 04:11:29;;;;;;;;;;;5.20;90.00;;;;;;5086000;28;19908;-66
2022/04/19 04:13:55;;;;;;;;;;;5.20;90.00;;;;;;5086390;28;19947;-65
2022/04/19 04:16:21;;;;;;;;;;;5.20;90.00;;;;;;5086201;28;19980;-66
2022/04/19 04:18:46;;;;;;;;;;;5.20;90.10;;;;;;5086238;28;19908;-66
2022/04/19 04:21:12;;;;;;;;;;;5.20;90.00;;;;;;5085633;28;19908;-66
2022/04/19 04:23:38;;;;;;;;;;;5.20;90.00;;;;;;5086161;28;19967;-66
2022/04/19 04:26:03;;;;;;;;;;;5.20;90.00;;;;;;5085935;28;20104;-66
2022/04/19 04:28:29;;;;;;;;;;;5.20;90.10;;;;;;5086039;28;19909;-66
2022/04/19 04:30:54;;;;;;;;;;;5.20;90.10;;;;;;5085769;28;19940;-66
2022/04/19 04:33:21;;;;;;;;;;;5.20;90.30;;;;;;5085998;28;19915;-66
2022/04/19 04:35:47;;;;;;;;;;;5.10;90.30;;;;;;5067555;28;19956;-66
2022/04/19 04:38:13;;;;;;;;;;;5.10;90.20;;;;;;5085873;28;19908;-66
2022/04/19 04:40:39;;;;;;;;;;;5.20;90.20;;;;;;5085395;28;20223;-66
2022/04/19 04:43:05;;;;;;;;;;;5.20;90.00;;;;;;5085761;28;19909;-66
2022/04/19 04:45:30;;;;;;;;;;;5.20;89.80;;;;;;5085736;28;20195;-65
2022/04/19 04:50:40;;;;;;;;;;;5.10;90.00;;;;;;5084601;28;20107;-65
2022/04/19 04:53:06;;;;;;;;;;;5.10;90.10;;;;;;5081364;28;19912;-66
2022/04/19 04:55:31;;;;;;;;;;;5.10;90.30;;;;;;5065094;28;20328;-66
2022/04/19 04:58:01;;;;;;;;;;;5.10;90.40;;;;;;5065212;28;19971;-66
2022/04/19 05:00:27;;;;;;;;;;;5.10;90.30;;;;;;5063059;28;20150;-66
2022/04/19 05:02:53;;;;;;;;;;;5.00;90.50;;;;;;5064970;28;19916;-66
2022/04/19 05:05:19;;;;;;;;;;;5.00;90.60;;;;;;5072257;28;20003;-66
2022/04/19 05:07:45;;;;;;;;;;;5.20;90.20;;;;;;5064720;28;19917;-65
2022/04/19 05:10:11;;;;;;;;;;;5.20;89.90;;;;;;5064943;28;19947;-66
2022/04/19 05:12:37;;;;;;;;;;;5.30;89.60;;;;;;5064926;28;19909;-65
2022/04/19 05:15:04;;;;;;;;;;;5.30;89.30;;;;;;5065281;28;19935;-67
2022/04/19 05:17:29;;;;;;;;;;;5.40;89.40;;;;;;5065121;28;19971;-66
2022/04/19 05:19:55;;;;;;;;;;;5.50;89.50;;;;;;5064778;28;19916;-66
2022/04/19 05:22:21;;;;;;;;;;;5.40;89.80;;;;;;5064763;28;19998;-66
2022/04/19 05:24:47;;;;;;;;;;;5.50;90.00;;;;;;5064928;28;19916;-65
2022/04/19 05:27:13;;;;;;;;;;;5.60;89.50;;;;;;5064943;28;19908;-66
2022/04/19 05:29:38;;;;;;;;;;;5.60;89.20;;;;;;5064854;28;19909;-66
2022/04/19 05:32:05;;;;;;;;;;;5.70;88.70;;;;;;5064517;28;20113;-66
2022/04/19 05:34:31;;;;;;;;;;;5.80;88.50;;;;;;5067732;28;19916;-66
2022/04/19 05:36:56;;;;;;;;;;;5.80;88.60;;;;;;5067053;28;19915;-66
2022/04/19 05:39:22;;;;;;;;;;;5.90;88.50;;;;;;5067072;28;19976;-66
2022/04/19 05:41:48;;;;;;;;;;;6.00;88.10;;;;;;5084418;28;19944;-66
2022/04/19 05:44:14;;;;;;;;;;;6.00;88.00;;;;;;5084580;28;19910;-66
2022/04/19 05:46:39;;;;;;;;;;;6.00;87.50;;;;;;5084572;28;19946;-65
2022/04/19 05:49:05;;;;;;;;;;;6.10;87.30;;;;;;5084497;28;20216;-66
2022/04/19 05:51:33;;;;;;;;;;;6.30;87.00;;;;;;5084062;28;19923;-66
2022/04/19 05:54:00;;;;;;;;;;;6.30;86.60;;;;;;5084194;28;19920;-66
2022/04/19 05:56:25;;;;;;;;;;;6.40;86.20;;;;;;5084493;28;20161;-68
2022/04/19 05:58:51;;;;;;;;;;;6.50;86.20;;;;;;5084339;28;19952;-67
2022/04/19 06:01:18;;;;;;;;;;;6.60;85.80;;;;;;5083995;28;19947;-67
2022/04/19 06:06:29;;;;;;;;;;;6.70;84.70;;;;;;5084020;28;20111;-67
2022/04/19 06:08:54;;;;;;;;;;;6.80;84.70;;;;;;5066386;28;19909;-67
2022/04/19 06:11:21;;;;;;;;;;;6.90;84.40;;;;;;5083504;28;19909;-66
2022/04/19 06:13:46;;;;;;;;;;;6.80;84.40;;;;;;5065750;28;19950;-66
2022/04/19 06:16:12;;;;;;;;;;;6.90;84.80;;;;;;5083506;28;20492;-66
2022/04/19 06:18:38;;;;;;;;;;;6.80;84.60;;;;;;5082604;28;20154;-67
2022/04/19 06:21:06;;;;;;;;;;;7.00;84.50;;;;;;5082724;28;19915;-68
2022/04/19 06:23:35;;;;;;;;;;;7.10;84.10;;;;;;5083336;28;19908;-67
2022/04/19 06:26:01;;;;;;;;;;;7.20;83.50;;;;;;5083004;28;19908;-67
2022/04/19 06:28:27;;;;;;;;;;;7.30;83.30;;;;;;5083010;28;19908;-67
2022/04/19 06:30:53;;;;;;;;;;;7.40;82.80;;;;;;5082991;28;19951;-66
2022/04/19 06:33:18;;;;;;;;;;;7.50;82.60;;;;;;5083243;28;19931;-67
2022/04/19 06:35:44;;;;;;;;;;;7.70;81.50;;;;;;5082793;28;19947;-68
2022/04/19 06:38:10;;;;;;;;;;;7.70;81.80;;;;;;5083157;28;19963;-67
2022/04/19 06:40:35;;;;;;;;;;;7.70;82.10;;;;;;5082810;28;19931;-67
2022/04/19 06:43:02;;;;;;;;;;;7.80;81.30;;;;;;5082916;28;19939;-67
2022/04/19 06:45:28;;;;;;;;;;;7.90;81.40;;;;;;5082752;28;19920;-68
2022/04/19 06:47:58;;;;;;;;;;;8.10;79.30;;;;;;5064949;28;19939;-67
2022/04/19 06:50:24;;;;;;;;;;;8.00;78.90;;;;;;5082595;28;19908;-67
2022/04/19 06:52:51;;;;;;;;;;;8.00;77.90;;;;;;5082017;28;20276;-67
2022/04/19 06:55:19;;;;;;;;;;;8.10;77.40;;;;;;5082616;28;20187;-66
2022/04/19 06:57:48;;;;;;;;;;;8.10;77.20;;;;;;5082860;28;19908;-68
2022/04/19 07:00:14;;;;;;;;;;;8.20;77.80;;;;;;5082717;28;19912;-67
2022/04/19 07:02:40;;;;;;;;;;;8.20;77.80;;;;;;5082420;28;20230;-67
2022/04/19 07:05:06;;;;;;;;;;;8.30;78.20;;;;;;5082160;28;19979;-66
2022/04/19 07:07:33;;;;;;;;;;;8.40;79.00;;;;;;5082891;28;19923;-67
2022/04/19 07:09:59;;;;;;;;;;;8.40;79.20;;;;;;5082912;28;19979;-67
2022/04/19 07:12:24;;;;;;;;;;;8.70;79.00;;;;;;5064643;28;19950;-68
2022/04/19 07:14:50;;;;;;;;;;;8.60;79.40;;;;;;5082362;28;20196;-68
2022/04/19 07:17:16;;;;;;;;;;;8.60;79.20;;;;;;5082456;28;19908;-67
2022/04/19 07:28:05;;;;;;;;;;;9.00;78.80;;;;;;5082123;28;19915;-67
2022/04/19 07:30:33;;;;;;;;;;;9.00;78.40;;;;;;5081708;28;19909;-67
2022/04/19 07:33:00;;;;;;;;;;;9.20;77.30;;;;;;5082273;28;19945;-67
2022/04/19 07:35:26;;;;;;;;;;;9.20;77.50;;;;;;5064300;28;19912;-67
2022/04/19 07:37:51;;;;;;;;;;;9.30;77.90;;;;;;5082437;28;19947;-67
2022/04/19 07:40:17;;;;;;;;;;;9.40;78.30;;;;;;5053372;28;20271;-67
2022/04/19 07:42:43;;;;;;;;;;;9.50;77.30;;;;;;5058205;28;19920;-68
2022/04/19 07:45:09;;;;;;;;;;;9.70;76.30;;;;;;5062071;28;19924;-68
2022/04/19 07:47:35;;;;;;;;;;;9.80;74.90;;;;;;5062303;28;19916;-67
2022/04/19 07:50:01;;;;;;;;;;;10.00;74.60;;;;;;5060986;28;19909;-66
2022/04/19 07:52:27;;;;;;;;;;;10.20;74.30;;;;;;5059807;28;19913;-67
2022/04/19 07:54:52;;;;;;;;;;;10.30;74.30;;;;;;5061131;28;19966;-67
2022/04/19 07:57:19;;;;;;;;;;;10.50;71.30;;;;;;5056970;28;20270;-66
2022/04/19 07:59:45;;;;;;;;;;;10.60;69.50;;;;;;5057780;28;19913;-66
2022/04/19 08:02:11;;;;;;;;;;;10.60;70.20;;;;;;5061652;28;19908;-67
2022/04/19 08:04:36;;;;;;;;;;;10.70;69.40;;;;;;5062817;28;19954;-67
2022/04/19 08:07:02;;;;;;;;;;;10.90;67.50;;;;;;5061689;28;19931;-67
2022/04/19 08:09:28;;;;;;;;;;;11.00;67.40;;;;;;5062072;28;19955;-67
2022/04/19 08:11:53;;;;;;;;;;;11.10;66.20;;;;;;5061683;28;19967;-67
2022/04/19 08:14:19;;;;;;;;;;;11.10;66.70;;;;;;5062014;28;19920;-68
2022/04/19 08:16:45;;;;;;;;;;;11.30;66.80;;;;;;5061969;28;19908;-67
2022/04/19 08:19:11;;;;;;;;;;;11.50;62.70;;;;;;5061487;28;20212;-66
2022/04/19 08:21:37;;;;;;;;;;;11.50;64.10;;;;;;5061061;28;19912;-67
2022/04/19 08:24:03;;;;;;;;;;;11.70;65.80;;;;;;5077539;28;19925;-70
2022/04/19 08:26:29;;;;;;;;;;;11.80;63.80;;;;;;5077351;28;20249;-68
2022/04/19 08:28:55;;;;;;;;;;;12.10;61.30;;;;;;5061696;28;19916;-68
2022/04/19 08:31:21;;;;;;;;;;;12.20;59.10;;;;;;5061648;28;19908;-68
2022/04/19 08:33:46;;;;;;;;;;;12.20;59.30;;;;;;5061797;28;19908;-68
2022/04/19 08:36:12;;;;;;;;;;;12.20;59.40;;;;;;5075374;28;19916;-69
2022/04/19 08:38:38;;;;;;;;;;;12.40;58.90;;;;;;5061658;28;19924;-69
2022/04/19 08:41:04;;;;;;;;;;;12.30;58.00;;;;;;5061633;28;20146;-68
2022/04/19 08:43:30;;;;;;;;;;;12.20;57.80;;;;;;5064527;28;19909;-69
2022/04/19 08:45:56;;;;;;;;;;;12.30;58.60;;;;;;5058425;28;19916;-68
2022/04/19 08:48:24;;;;;;;;;;;12.30;58.30;;;;;;5058742;28;19945;-69
2022/04/19 08:50:51;;;;;;;;;;;12.40;58.30;;;;;;5035581;28;19972;-69
2022/04/19 08:58:45;;;;;;;;;;;13.00;57.70;;;;;;5058901;28;19926;-69
2022/04/19 09:01:11;;;;;;;;;;;13.10;56.90;;;;;;5064779;28;19913;-68
2022/04/19 09:03:38;;;;;;;;;;;13.30;55.70;;;;;;5064808;28;19909;-71
2022/04/19 09:06:03;;;;;;;;;;;13.30;54.10;;;;;;5061947;28;19921;-70
2022/04/19 09:08:29;;;;;;;;;;;13.20;54.60;;;;;;5063477;28;19916;-70
2022/04/19 09:11:08;;;;;;;;;;;13.30;55.50;;;;;;5064521;28;19909;-71
2022/04/19 09:13:34;;;;;;;;;;;13.40;56.30;;;;;;5064778;28;19909;-69
2022/04/19 09:16:06;;;;;;;;;;;13.60;56.60;;;;;;5064767;28;20147;-71
2022/04/19 09:18:34;;;;;;;;;;;13.60;54.00;;;;;;5064632;28;19916;-71
2022/04/19 09:21:01;;;;;;;;;;;13.70;54.60;;;;;;5052080;28;19909;-71
2022/04/19 09:23:30;;;;;;;;;;;13.70;53.10;;;;;;5064763;28;19946;-69
2022/04/19 09:25:57;;;;;;;;;;;13.80;52.90;;;;;;5059366;28;20112;-71
2022/04/19 09:28:23;;;;;;;;;;;13.80;52.90;;;;;;5064208;28;19962;-68
2022/04/19 09:30:56;;;;;;;;;;;14.00;52.70;;;;;;5063909;28;19908;-69
2022/04/19 09:33:22;;;;;;;;;;;13.90;53.40;;;;;;5064546;28;19940;-70
2022/04/19 09:35:53;;;;;;;;;;;14.00;53.70;;;;;;5051696;28;19963;-70
2022/04/19 09:38:32;;;;;;;;;;;14.00;52.80;;;;;;5064255;28;19909;-70
2022/04/19 09:40:58;;;;;;;;;;;14.10;51.80;;;;;;5060937;28;19927;-70
2022/04/19 09:43:24;;;;;;;;;;;14.20;52.30;;;;;;5051291;28;20112;-70
2022/04/19 09:45:54;;;;;;;;;;;14.10;52.30;;;;;;5063967;28;19955;-69
2022/04/19 09:48:28;;;;;;;;;;;14.30;52.60;;;;;;5063902;28;19909;-70
2022/04/19 09:51:02;;;;;;;;;;;14.50;53.60;;;;;;5063471;28;19944;-69
2022/04/19 09:53:29;;;;;;;;;;;14.50;52.80;;;;;;5064031;28;19944;-71
2022/04/19 09:55:56;;;;;;;;;;;14.50;51.90;;;;;;5062607;28;19913;-70
2022/04/19 09:58:22;;;;;;;;;;;14.50;51.00;;;;;;5063950;28;19990;-69
2022/04/19 10:00:48;;;;;;;;;;;14.60;51.10;;;;;;5063763;28;19917;-70
2022/04/19 10:08:44;;;;;;;;;;;14.60;51.30;;;;;;5083703;28;19987;-69
2022/04/19 10:11:10;;;;;;;;;;;14.80;50.80;;;;;;5083433;28;19931;-70
2022/04/19 10:13:36;;;;;;;;;;;14.70;49.90;;;;;;5083679;28;19979;-69
2022/04/19 10:16:02;;;;;;;;;;;14.60;48.00;;;;;;5058043;28;19927;-68
2022/04/19 10:18:27;;;;;;;;;;;14.50;49.10;;;;;;5056851;28;20303;-69
2022/04/19 10:20:55;;;;;;;;;;;14.60;50.30;;;;;;5058502;28;20206;-69
2022/04/19 10:23:21;;;;;;;;;;;14.60;49.30;;;;;;5024283;28;19921;-71
2022/04/19 10:25:48;;;;;;;;;;;14.60;49.20;;;;;;5042232;28;19909;-71
2022/04/19 10:28:35;;;;;;;;;;;14.60;49.30;;;;;;5062704;28;19958;-69
2022/04/19 10:31:01;;;;;;;;;;;15.00;51.30;;;;;;5063107;28;19992;-69
2022/04/19 10:33:44;;;;;;;;;;;15.10;50.10;;;;;;5062180;28;20123;-69
2022/04/19 10:36:22;;;;;;;;;;;15.30;49.10;;;;;;5080387;28;19912;-69
2022/04/19 10:39:15;;;;;;;;;;;15.40;47.60;;;;;;5083042;28;19924;-69
2022/04/19 10:41:57;;;;;;;;;;;15.50;47.00;;;;;;5070209;28;19909;-69
2022/04/19 10:44:31;;;;;;;;;;;16.00;49.40;;;;;;5063262;28;19979;-69
2022/04/19 10:47:13;;;;;;;;;;;16.20;46.40;;;;;;5062964;28;19909;-69
2022/04/19 10:50:04;;;;;;;;;;;16.30;46.40;;;;;;5046279;28;19909;-70
2022/04/19 10:52:36;;;;;;;;;;;16.50;46.00;;;;;;5062293;28;20184;-70
2022/04/19 10:55:18;;;;;;;;;;;16.70;46.30;;;;;;5062619;28;20289;-69
2022/04/19 11:00:34;;;;;;;;;;;17.30;45.40;;;;;;5062711;28;19980;-69
2022/04/19 11:03:01;;;;;;;;;;;17.50;45.50;;;;;;5062343;28;19963;-69
2022/04/19 11:05:34;;;;;;;;;;;17.60;42.70;;;;;;5073149;28;20204;-69
2022/04/19 11:08:24;;;;;;;;;;;17.50;44.10;;;;;;5082524;28;19914;-70
2022/04/19 11:10:56;;;;;;;;;;;17.80;44.00;;;;;;5082337;28;19919;-69
2022/04/19 11:13:28;;;;;;;;;;;18.10;43.60;;;;;;5082590;28;19915;-69
2022/04/19 11:15:57;;;;;;;;;;;18.10;42.00;;;;;;5082415;28;20112;-69
2022/04/19 11:18:24;;;;;;;;;;;17.90;41.30;;;;;;5082299;28;19917;-69
2022/04/19 11:20:59;;;;;;;;;;;17.80;42.00;;;;;;5082080;28;19916;-69
2022/04/19 11:23:26;;;;;;;;;;;17.70;43.60;;;;;;5082398;28;19915;-70
2022/04/19 11:25:53;;;;;;;;;;;17.70;40.90;;;;;;5082391;28;19909;-69
2022/04/19 11:28:19;;;;;;;;;;;18.00;41.80;;;;;;5082242;28;19947;-70
2022/04/19 11:30:45;;;;;;;;;;;18.30;43.20;;;;;;5082041;28;19908;-69
2022/04/19 11:33:20;;;;;;;;;;;18.30;42.10;;;;;;5082385;28;19944;-69
2022/04/19 11:36:02;;;;;;;;;;;18.40;40.50;;;;;;5064087;28;19912;-69
2022/04/19 11:38:29;;;;;;;;;;;18.80;41.40;;;;;;5064674;28;19923;-69
2022/04/19 11:49:09;;;;;;;;;;;19.40;38.40;;;;;;5048947;28;19943;-69
2022/04/19 11:51:35;;;;;;;;;;;19.00;38.80;;;;;;5056920;28;20134;-69
2022/04/19 11:54:05;;;;;;;;;;;19.20;38.60;;;;;;5054103;28;20227;-69
2022/04/19 11:56:31;;;;;;;;;;;19.60;38.60;;;;;;5042889;28;19909;-69
2022/04/19 11:59:00;;;;;;;;;;;20.20;39.00;;;;;;5061026;28;19943;-69
2022/04/19 12:01:28;;;;;;;;;;;20.70;38.80;;;;;;5061638;28;20011;-69
2022/04/19 12:03:54;;;;;;;;;;;20.80;36.80;;;;;;5062075;28;19924;-69
2022/04/19 12:06:20;;;;;;;;;;;20.90;36.30;;;;;;5080439;28;19912;-69
2022/04/19 12:08:54;;;;;;;;;;;21.10;37.20;;;;;;5082105;28;19962;-68
2022/04/19 12:11:23;;;;;;;;;;;21.00;36.80;;;;;;5081831;28;20108;-69
2022/04/19 12:13:51;;;;;;;;;;;21.00;37.70;;;;;;5082148;28;20084;-69
2022/04/19 12:16:31;;;;;;;;;;;21.00;35.30;;;;;;5082606;28;20273;-69
2022/04/19 12:19:03;;;;;;;;;;;21.80;34.90;;;;;;5085716;28;19939;-69
2022/04/19 12:21:48;;;;;;;;;;;23.10;33.60;;;;;;5085416;28;20187;-70
2022/04/19 12:24:24;;;;;;;;;;;24.40;33.50;;;;;;5085742;28;20241;-70
2022/04/19 12:26:51;;;;;;;;;;;25.70;30.60;;;;;;5085790;28;19954;-71
2022/04/19 12:29:16;;;;;;;;;;;26.40;30.00;;;;;;5085529;28;20203;-70
2022/04/19 12:31:47;;;;;;;;;;;24.90;29.30;;;;;;5085454;28;19909;-70
2022/04/19 12:34:15;;;;;;;;;;;25.20;29.60;;;;;;5085382;28;19943;-70
2022/04/19 12:36:48;;;;;;;;;;;26.80;28.90;;;;;;5085421;28;20138;-70
2022/04/19 12:39:15;;;;;;;;;;;28.40;27.40;;;;;;5085468;28;19908;-71
2022/04/19 12:41:44;;;;;;;;;;;30.00;27.50;;;;;;5085223;28;19909;-71
2022/04/19 12:44:14;;;;;;;;;;;31.20;26.40;;;;;;5085360;28;19908;-71
2022/04/19 12:46:47;;;;;;;;;;;31.00;25.80;;;;;;5085479;28;19912;-71
2022/04/19 12:49:29;;;;;;;;;;;31.30;25.70;;;;;;5067570;28;19916;-71
2022/04/19 12:52:05;;;;;;;;;;;32.60;24.90;;;;;;5084661;28;19916;-71
2022/04/19 12:54:32;;;;;;;;;;;34.10;24.20;;;;;;5084910;28;19936;-70
2022/04/19 12:57:10;;;;;;;;;;;34.40;23.90;;;;;;5085021;28;20007;-70
2022/04/19 12:59:35;;;;;;;;;;;34.20;22.90;;;;;;5085460;28;19908;-71
2022/04/19 13:02:02;;;;;;;;;;;34.00;23.00;;;;;;5067110;28;19931;-70
2022/04/19 13:04:27;;;;;;;;;;;35.10;22.90;;;;;;5085000;28;19912;-70
2022/04/19 13:12:26;;;;;;;;;;;37.50;22.30;;;;;;5084609;28;19915;-70
2022/04/19 13:14:58;;;;;;;;;;;38.00;22.10;;;;;;5084738;28;19912;-70
2022/04/19 13:17:25;;;;;;;;;;;38.60;21.90;;;;;;5066962;28;19983;-71
2022/04/19 13:19:51;;;;;;;;;;;37.60;21.50;;;;;;5067246;28;19930;-71
2022/04/19 13:22:16;;;;;;;;;;;37.70;21.50;;;;;;5084083;28;19940;-70
2022/04/19 13:24:42;;;;;;;;;;;37.00;21.00;;;;;;5084490;28;19939;-71
2022/04/19 13:27:11;;;;;;;;;;;37.40;21.70;;;;;;5084005;28;19924;-70
2022/04/19 13:29:38;;;;;;;;;;;39.30;21.80;;;;;;5084354;28;19908;-67
2022/04/19 13:32:04;;;;;;;;;;;38.30;21.80;;;;;;5084060;28;20091;-72
2022/04/19 13:34:30;;;;;;;;;;;38.10;21.80;;;;;;5084443;28;19913;-72
2022/04/19 13:36:56;;;;;;;;;;;37.80;21.40;;;;;;5084422;28;19916;-72
2022/04/19 13:39:23;;;;;;;;;;;36.10;22.20;;;;;;5084505;28;19915;-68
2022/04/19 13:41:49;;;;;;;;;;;35.60;21.90;;;;;;5083956;28;19916;-68
2022/04/19 13:44:14;;;;;;;;;;;33.30;22.90;;;;;;5084034;28;20204;-72
2022/04/19 13:46:41;;;;;;;;;;;31.90;23.50;;;;;;5084110;28;19920;-73
2022/04/19 13:49:08;;;;;;;;;;;30.90;23.50;;;;;;5066385;28;19912;-73
2022/04/19 13:51:35;;;;;;;;;;;29.60;23.50;;;;;;5083511;28;20230;-73
2022/04/19 13:54:02;;;;;;;;;;;27.30;25.30;;;;;;5083885;28;19954;-73
2022/04/19 13:56:29;;;;;;;;;;;27.20;25.80;;;;;;5049535;28;19908;-73
2022/04/19 13:58:57;;;;;;;;;;;27.60;25.60;;;;;;5066326;28;20197;-73
2022/04/19 14:01:25;;;;;;;;;;;28.20;24.30;;;;;;5083623;28;19916;-75
2022/04/19 14:03:50;;;;;;;;;;;29.40;24.10;;;;;;5066591;28;19909;-75
2022/04/19 14:06:16;;;;;;;;;;;29.70;24.00;;;;;;5083347;28;19954;-75
2022/04/19 14:08:42;;;;;;;;;;;28.10;23.90;;;;;;5083840;28;19909;-75
2022/04/19 14:11:07;;;;;;;;;;;27.40;24.60;;;;;;5065723;28;19939;-74
2022/04/19 14:13:33;;;;;;;;;;;26.60;25.00;;;;;;5083672;28;19951;-74
2022/04/19 14:15:59;;;;;;;;;;;26.80;25.40;;;;;;5083586;28;19912;-75
2022/04/19 14:18:25;;;;;;;;;;;27.50;25.30;;;;;;5083621;28;19931;-75
2022/04/19 14:20:51;;;;;;;;;;;28.10;24.40;;;;;;5065337;28;19909;-75
2022/04/19 14:23:16;;;;;;;;;;;26.70;24.00;;;;;;5065802;28;19922;-74
2022/04/19 14:25:44;;;;;;;;;;;26.50;24.40;;;;;;5052286;28;19954;-74
2022/04/19 14:28:09;;;;;;;;;;;26.80;24.50;;;;;;5021901;28;19913;-74
2022/04/19 14:33:36;;;;;;;;;;;27.50;24.50;;;;;;5058802;28;20207;-70
2022/04/19 14:36:02;;;;;;;;;;;28.40;23.30;;;;;;5053395;28;19923;-71
2022/04/19 14:38:29;;;;;;;;;;;29.70;23.10;;;;;;5063865;28;20068;-70
2022/04/19 14:40:54;;;;;;;;;;;31.70;22.60;;;;;;5030397;28;19909;-71
2022/04/19 14:43:20;;;;;;;;;;;32.50;22.20;;;;;;5060753;28;20098;-70
2022/04/19 14:45:46;;;;;;;;;;;33.10;21.80;;;;;;5063058;28;19915;-70
2022/04/19 14:48:11;;;;;;;;;;;33.10;21.80;;;;;;5062915;28;20011;-70
2022/04/19 14:52:13;;;;;;;;;;;34.00;21.60;;;;;;5065707;28;20263;-71
2022/04/19 14:53:23;;;;;;;;;;;34.30;21.20;;;;;;5082725;28;19916;-71
2022/04/19 14:55:48;;;;;;;;;;;34.60;21.00;;;;;;5082710;28;19955;-71
2022/04/19 14:58:14;;;;;;;;;;;35.10;20.70;;;;;;5082907;28;19954;-70
2022/04/19 15:00:40;;;;;;;;;;;35.30;20.70;;;;;;5082558;28;19908;-70
2022/04/19 15:03:05;;;;;;;;;;;35.00;20.80;;;;;;5082908;28;19908;-71
2022/04/19 15:05:31;;;;;;;;;;;34.60;21.00;;;;;;5075840;28;19979;-70
2022/04/19 15:07:57;;;;;;;;;;;34.80;20.80;;;;;;5062511;28;19908;-70
2022/04/19 15:10:23;;;;;;;;;;;34.60;21.00;;;;;;5078224;28;19917;-70
2022/04/19 15:12:52;;;;;;;;;;;34.20;21.10;;;;;;5062526;28;19909;-70
2022/04/19 15:15:20;;;;;;;;;;;33.60;21.50;;;;;;5077557;28;19943;-69
2022/04/19 15:17:46;;;;;;;;;;;33.30;21.30;;;;;;5061235;28;20200;-69
2022/04/19 15:20:11;;;;;;;;;;;33.50;21.10;;;;;;5062144;28;19971;-68